sensor_id;sensor_type;location;lat;lon;timestamp;P1;durP1;ratioP1;P2;durP2;ratioP2
6860;SDS011;3469;47.060;15.460;2024-03-22T00:02:17;2.50;;;2.00;;
6860;SDS011;3469;47.060;15.460;2024-03-22T00:04:46;2.73;;;2.10;;
6860;SDS011;3469;47.060;15.460;2024-03-22T00:07:13;2.57;;;1.63;;
6860;SDS011;3469;47.060;15.460;2024-03-22T00:09:39;2.73;;;2.30;;
6860;SDS011;3469;47.060;15.460;2024-03-22T00:12:06;2.90;;;2.00;;
6860;SDS011;3469;47.060;15.460;2024-03-22T00:14:33;3.60;;;2.03;;
6860;SDS011;3469;47.060;15.460;2024-03-22T00:17:00;3.63;;;2.73;;
6860;SDS011;3469;47.060;15.460;2024-03-22T00:19:26;2.87;;;2.50;;
6860;SDS011;3469;47.060;15.460;2024-03-22T00:21:55;3.17;;;2.17;;
6860;SDS011;3469;47.060;15.460;2024-03-22T00:24:22;3.37;;;2.30;;
6860;SDS011;3469;47.060;15.460;2024-03-22T00:26:48;2.23;;;2.03;;
6860;SDS011;3469;47.060;15.460;2024-03-22T00:29:15;2.73;;;2.30;;
6860;SDS011;3469;47.060;15.460;2024-03-22T00:31:41;2.67;;;2.47;;
6860;SDS011;3469;47.060;15.460;2024-03-22T00:34:08;2.50;;;1.83;;
6860;SDS011;3469;47.060;15.460;2024-03-22T00:36:34;3.80;;;2.67;;
6860;SDS011;3469;47.060;15.460;2024-03-22T00:39:03;2.87;;;2.20;;
6860;SDS011;3469;47.060;15.460;2024-03-22T00:41:29;2.50;;;2.03;;
6860;SDS011;3469;47.060;15.460;2024-03-22T00:43:56;2.60;;;2.37;;
6860;SDS011;3469;47.060;15.460;2024-03-22T00:46:23;3.90;;;2.30;;
6860;SDS011;3469;47.060;15.460;2024-03-22T00:48:49;3.63;;;2.70;;
6860;SDS011;3469;47.060;15.460;2024-03-22T00:51:16;2.63;;;2.23;;
6860;SDS011;3469;47.060;15.460;2024-03-22T00:53:42;2.40;;;2.10;;
6860;SDS011;3469;47.060;15.460;2024-03-22T00:56:11;4.43;;;2.53;;
6860;SDS011;3469;47.060;15.460;2024-03-22T00:58:37;4.20;;;2.20;;
6860;SDS011;3469;47.060;15.460;2024-03-22T01:01:04;3.23;;;2.40;;
6860;SDS011;3469;47.060;15.460;2024-03-22T01:03:30;2.40;;;2.00;;
6860;SDS011;3469;47.060;15.460;2024-03-22T01:05:57;3.00;;;2.10;;
6860;SDS011;3469;47.060;15.460;2024-03-22T01:08:23;2.73;;;2.20;;
6860;SDS011;3469;47.060;15.460;2024-03-22T01:10:49;4.17;;;2.13;;
6860;SDS011;3469;47.060;15.460;2024-03-22T01:13:19;3.80;;;2.50;;
6860;SDS011;3469;47.060;15.460;2024-03-22T01:15:45;3.43;;;2.50;;
6860;SDS011;3469;47.060;15.460;2024-03-22T01:18:11;3.80;;;2.83;;
6860;SDS011;3469;47.060;15.460;2024-03-22T01:20:38;3.07;;;2.23;;
6860;SDS011;3469;47.060;15.460;2024-03-22T01:23:04;2.63;;;2.40;;
6860;SDS011;3469;47.060;15.460;2024-03-22T01:25:31;3.00;;;2.10;;
6860;SDS011;3469;47.060;15.460;2024-03-22T01:27:57;2.47;;;2.00;;
6860;SDS011;3469;47.060;15.460;2024-03-22T01:30:26;3.30;;;2.40;;
6860;SDS011;3469;47.060;15.460;2024-03-22T01:32:53;4.87;;;2.60;;
6860;SDS011;3469;47.060;15.460;2024-03-22T01:35:20;2.57;;;1.83;;
6860;SDS011;3469;47.060;15.460;2024-03-22T01:37:46;3.73;;;2.73;;
6860;SDS011;3469;47.060;15.460;2024-03-22T01:40:13;3.30;;;2.20;;
6860;SDS011;3469;47.060;15.460;2024-03-22T01:42:40;2.50;;;1.83;;
6860;SDS011;3469;47.060;15.460;2024-03-22T01:45:07;2.60;;;2.10;;
6860;SDS011;3469;47.060;15.460;2024-03-22T01:47:36;4.47;;;2.57;;
6860;SDS011;3469;47.060;15.460;2024-03-22T01:50:03;3.20;;;2.13;;
6860;SDS011;3469;47.060;15.460;2024-03-22T01:52:30;3.00;;;2.13;;
6860;SDS011;3469;47.060;15.460;2024-03-22T01:54:57;4.63;;;3.07;;
6860;SDS011;3469;47.060;15.460;2024-03-22T01:57:24;2.40;;;2.20;;
6860;SDS011;3469;47.060;15.460;2024-03-22T01:59:51;3.40;;;2.50;;
6860;SDS011;3469;47.060;15.460;2024-03-22T02:02:20;4.60;;;2.10;;
6860;SDS011;3469;47.060;15.460;2024-03-22T02:04:52;4.77;;;3.00;;
6860;SDS011;3469;47.060;15.460;2024-03-22T02:07:18;2.70;;;2.50;;
6860;SDS011;3469;47.060;15.460;2024-03-22T02:09:45;3.13;;;2.70;;
6860;SDS011;3469;47.060;15.460;2024-03-22T02:12:11;4.17;;;2.77;;
6860;SDS011;3469;47.060;15.460;2024-03-22T02:14:38;3.00;;;2.47;;
6860;SDS011;3469;47.060;15.460;2024-03-22T02:17:04;3.73;;;2.40;;
6860;SDS011;3469;47.060;15.460;2024-03-22T02:19:31;3.87;;;2.50;;
6860;SDS011;3469;47.060;15.460;2024-03-22T02:22:00;3.57;;;2.53;;
6860;SDS011;3469;47.060;15.460;2024-03-22T02:24:29;3.47;;;3.03;;
6860;SDS011;3469;47.060;15.460;2024-03-22T02:26:56;2.47;;;2.27;;
6860;SDS011;3469;47.060;15.460;2024-03-22T02:29:23;3.60;;;2.37;;
6860;SDS011;3469;47.060;15.460;2024-03-22T02:31:49;2.90;;;2.10;;
6860;SDS011;3469;47.060;15.460;2024-03-22T02:34:15;3.00;;;2.33;;
6860;SDS011;3469;47.060;15.460;2024-03-22T02:36:42;2.90;;;2.30;;
6860;SDS011;3469;47.060;15.460;2024-03-22T02:39:08;2.70;;;2.20;;
6860;SDS011;3469;47.060;15.460;2024-03-22T02:41:38;3.83;;;2.43;;
6860;SDS011;3469;47.060;15.460;2024-03-22T02:44:04;3.10;;;2.43;;
6860;SDS011;3469;47.060;15.460;2024-03-22T02:46:31;7.23;;;2.37;;
6860;SDS011;3469;47.060;15.460;2024-03-22T02:48:57;4.47;;;2.83;;
6860;SDS011;3469;47.060;15.460;2024-03-22T02:51:24;4.47;;;2.37;;
6860;SDS011;3469;47.060;15.460;2024-03-22T02:53:51;5.73;;;2.20;;
6860;SDS011;3469;47.060;15.460;2024-03-22T02:56:18;4.20;;;2.70;;
6860;SDS011;3469;47.060;15.460;2024-03-22T02:58:47;8.93;;;2.30;;
6860;SDS011;3469;47.060;15.460;2024-03-22T03:01:15;4.93;;;2.77;;
6860;SDS011;3469;47.060;15.460;2024-03-22T03:03:41;4.90;;;2.77;;
6860;SDS011;3469;47.060;15.460;2024-03-22T03:06:07;4.53;;;2.60;;
6860;SDS011;3469;47.060;15.460;2024-03-22T03:08:34;4.20;;;2.67;;
6860;SDS011;3469;47.060;15.460;2024-03-22T03:11:00;3.53;;;2.57;;
6860;SDS011;3469;47.060;15.460;2024-03-22T03:13:27;5.73;;;2.77;;
6860;SDS011;3469;47.060;15.460;2024-03-22T03:15:56;4.40;;;3.00;;
6860;SDS011;3469;47.060;15.460;2024-03-22T03:18:23;8.50;;;2.80;;
6860;SDS011;3469;47.060;15.460;2024-03-22T03:20:49;3.90;;;2.30;;
6860;SDS011;3469;47.060;15.460;2024-03-22T03:23:16;2.97;;;2.10;;
6860;SDS011;3469;47.060;15.460;2024-03-22T03:25:44;3.00;;;2.27;;
6860;SDS011;3469;47.060;15.460;2024-03-22T03:28:10;2.90;;;2.60;;
6860;SDS011;3469;47.060;15.460;2024-03-22T03:30:36;4.53;;;2.20;;
6860;SDS011;3469;47.060;15.460;2024-03-22T03:33:05;2.60;;;2.30;;
6860;SDS011;3469;47.060;15.460;2024-03-22T03:35:32;3.93;;;1.90;;
6860;SDS011;3469;47.060;15.460;2024-03-22T03:37:58;4.10;;;2.27;;
6860;SDS011;3469;47.060;15.460;2024-03-22T03:40:25;2.57;;;2.20;;
6860;SDS011;3469;47.060;15.460;2024-03-22T03:42:51;2.93;;;2.17;;
6860;SDS011;3469;47.060;15.460;2024-03-22T03:45:18;4.73;;;2.03;;
6860;SDS011;3469;47.060;15.460;2024-03-22T03:47:44;3.53;;;2.87;;
6860;SDS011;3469;47.060;15.460;2024-03-22T03:50:14;3.20;;;2.27;;
6860;SDS011;3469;47.060;15.460;2024-03-22T03:52:41;2.80;;;2.30;;
6860;SDS011;3469;47.060;15.460;2024-03-22T03:55:07;4.73;;;2.33;;
6860;SDS011;3469;47.060;15.460;2024-03-22T03:57:34;3.37;;;1.90;;
6860;SDS011;3469;47.060;15.460;2024-03-22T04:00:01;8.97;;;2.50;;
6860;SDS011;3469;47.060;15.460;2024-03-22T04:02:27;2.37;;;2.17;;
6860;SDS011;3469;47.060;15.460;2024-03-22T04:04:54;2.20;;;1.90;;
6860;SDS011;3469;47.060;15.460;2024-03-22T04:07:23;4.10;;;2.37;;
6860;SDS011;3469;47.060;15.460;2024-03-22T04:09:50;3.70;;;2.27;;
6860;SDS011;3469;47.060;15.460;2024-03-22T04:12:16;5.33;;;2.40;;
6860;SDS011;3469;47.060;15.460;2024-03-22T04:14:42;2.93;;;1.77;;
6860;SDS011;3469;47.060;15.460;2024-03-22T04:17:09;5.70;;;3.40;;
6860;SDS011;3469;47.060;15.460;2024-03-22T04:19:35;2.50;;;2.23;;
6860;SDS011;3469;47.060;15.460;2024-03-22T04:22:02;3.70;;;2.33;;
6860;SDS011;3469;47.060;15.460;2024-03-22T04:24:31;4.90;;;2.40;;
6860;SDS011;3469;47.060;15.460;2024-03-22T04:26:58;3.33;;;2.20;;
6860;SDS011;3469;47.060;15.460;2024-03-22T04:29:24;3.17;;;2.53;;
6860;SDS011;3469;47.060;15.460;2024-03-22T04:31:51;2.73;;;2.50;;
6860;SDS011;3469;47.060;15.460;2024-03-22T04:34:17;3.47;;;2.10;;
6860;SDS011;3469;47.060;15.460;2024-03-22T04:36:43;4.93;;;2.50;;
6860;SDS011;3469;47.060;15.460;2024-03-22T04:39:10;3.20;;;2.13;;
6860;SDS011;3469;47.060;15.460;2024-03-22T04:41:40;4.67;;;2.47;;
6860;SDS011;3469;47.060;15.460;2024-03-22T04:44:07;3.20;;;2.33;;
6860;SDS011;3469;47.060;15.460;2024-03-22T04:46:34;2.67;;;2.23;;
6860;SDS011;3469;47.060;15.460;2024-03-22T04:49:00;2.80;;;2.23;;
6860;SDS011;3469;47.060;15.460;2024-03-22T04:51:27;3.40;;;2.80;;
6860;SDS011;3469;47.060;15.460;2024-03-22T04:53:53;2.77;;;2.23;;
6860;SDS011;3469;47.060;15.460;2024-03-22T04:56:20;3.47;;;2.67;;
6860;SDS011;3469;47.060;15.460;2024-03-22T04:58:49;4.50;;;2.60;;
6860;SDS011;3469;47.060;15.460;2024-03-22T05:01:15;3.27;;;2.77;;
6860;SDS011;3469;47.060;15.460;2024-03-22T05:03:42;3.17;;;2.80;;
6860;SDS011;3469;47.060;15.460;2024-03-22T05:06:08;3.30;;;3.00;;
6860;SDS011;3469;47.060;15.460;2024-03-22T05:08:35;3.93;;;2.87;;
6860;SDS011;3469;47.060;15.460;2024-03-22T05:11:01;2.57;;;2.37;;
6860;SDS011;3469;47.060;15.460;2024-03-22T05:13:28;4.20;;;3.30;;
6860;SDS011;3469;47.060;15.460;2024-03-22T05:15:57;6.57;;;3.00;;
6860;SDS011;3469;47.060;15.460;2024-03-22T05:18:23;3.20;;;2.90;;
6860;SDS011;3469;47.060;15.460;2024-03-22T05:20:50;5.10;;;2.77;;
6860;SDS011;3469;47.060;15.460;2024-03-22T05:23:17;5.73;;;3.33;;
6860;SDS011;3469;47.060;15.460;2024-03-22T05:25:43;6.00;;;3.03;;
6860;SDS011;3469;47.060;15.460;2024-03-22T05:28:09;4.90;;;3.10;;
6860;SDS011;3469;47.060;15.460;2024-03-22T05:30:36;3.10;;;2.80;;
6860;SDS011;3469;47.060;15.460;2024-03-22T05:33:05;4.60;;;3.00;;
6860;SDS011;3469;47.060;15.460;2024-03-22T05:35:31;4.60;;;3.27;;
6860;SDS011;3469;47.060;15.460;2024-03-22T05:37:58;4.63;;;3.37;;
6860;SDS011;3469;47.060;15.460;2024-03-22T05:40:24;3.67;;;2.80;;
6860;SDS011;3469;47.060;15.460;2024-03-22T05:42:51;5.17;;;2.70;;
6860;SDS011;3469;47.060;15.460;2024-03-22T05:45:17;9.77;;;3.57;;
6860;SDS011;3469;47.060;15.460;2024-03-22T05:47:47;4.70;;;3.50;;
6860;SDS011;3469;47.060;15.460;2024-03-22T05:50:17;4.70;;;3.47;;
6860;SDS011;3469;47.060;15.460;2024-03-22T05:52:43;7.03;;;4.03;;
6860;SDS011;3469;47.060;15.460;2024-03-22T05:55:10;8.50;;;3.93;;
6860;SDS011;3469;47.060;15.460;2024-03-22T05:57:38;3.33;;;2.60;;
6860;SDS011;3469;47.060;15.460;2024-03-22T06:00:06;4.60;;;3.43;;
6860;SDS011;3469;47.060;15.460;2024-03-22T06:02:33;7.33;;;3.47;;
6860;SDS011;3469;47.060;15.460;2024-03-22T06:05:00;11.27;;;3.77;;
6860;SDS011;3469;47.060;15.460;2024-03-22T06:07:30;7.07;;;3.60;;
6860;SDS011;3469;47.060;15.460;2024-03-22T06:09:57;8.63;;;4.10;;
6860;SDS011;3469;47.060;15.460;2024-03-22T06:12:23;5.70;;;3.40;;
6860;SDS011;3469;47.060;15.460;2024-03-22T06:14:51;5.40;;;3.57;;
6860;SDS011;3469;47.060;15.460;2024-03-22T06:17:20;14.03;;;3.63;;
6860;SDS011;3469;47.060;15.460;2024-03-22T06:19:46;6.37;;;3.50;;
6860;SDS011;3469;47.060;15.460;2024-03-22T06:22:13;7.03;;;4.80;;
6860;SDS011;3469;47.060;15.460;2024-03-22T06:24:44;18.80;;;5.37;;
6860;SDS011;3469;47.060;15.460;2024-03-22T06:27:11;30.13;;;5.40;;
6860;SDS011;3469;47.060;15.460;2024-03-22T06:29:37;6.10;;;3.50;;
6860;SDS011;3469;47.060;15.460;2024-03-22T06:32:04;15.90;;;4.83;;
6860;SDS011;3469;47.060;15.460;2024-03-22T06:34:32;5.30;;;4.00;;
6860;SDS011;3469;47.060;15.460;2024-03-22T06:36:58;11.10;;;4.53;;
6860;SDS011;3469;47.060;15.460;2024-03-22T06:39:24;6.37;;;3.60;;
6860;SDS011;3469;47.060;15.460;2024-03-22T06:41:54;7.40;;;3.83;;
6860;SDS011;3469;47.060;15.460;2024-03-22T06:44:20;6.73;;;4.40;;
6860;SDS011;3469;47.060;15.460;2024-03-22T06:46:47;8.17;;;3.90;;
6860;SDS011;3469;47.060;15.460;2024-03-22T06:49:13;6.70;;;4.10;;
6860;SDS011;3469;47.060;15.460;2024-03-22T06:51:40;5.53;;;4.00;;
6860;SDS011;3469;47.060;15.460;2024-03-22T06:54:06;8.53;;;3.90;;
6860;SDS011;3469;47.060;15.460;2024-03-22T06:56:33;12.50;;;5.70;;
6860;SDS011;3469;47.060;15.460;2024-03-22T06:59:02;11.77;;;3.37;;
6860;SDS011;3469;47.060;15.460;2024-03-22T07:01:28;17.53;;;3.87;;
6860;SDS011;3469;47.060;15.460;2024-03-22T07:03:56;6.47;;;4.13;;
6860;SDS011;3469;47.060;15.460;2024-03-22T07:06:23;5.70;;;2.97;;
6860;SDS011;3469;47.060;15.460;2024-03-22T07:08:49;7.87;;;3.30;;
6860;SDS011;3469;47.060;15.460;2024-03-22T07:11:16;6.63;;;5.00;;
6860;SDS011;3469;47.060;15.460;2024-03-22T07:13:42;7.17;;;3.20;;
6860;SDS011;3469;47.060;15.460;2024-03-22T07:16:11;10.13;;;4.67;;
6860;SDS011;3469;47.060;15.460;2024-03-22T07:18:38;5.93;;;3.33;;
6860;SDS011;3469;47.060;15.460;2024-03-22T07:21:04;14.40;;;3.97;;
6860;SDS011;3469;47.060;15.460;2024-03-22T07:23:31;4.60;;;3.70;;
6860;SDS011;3469;47.060;15.460;2024-03-22T07:25:57;4.87;;;3.50;;
6860;SDS011;3469;47.060;15.460;2024-03-22T07:28:24;4.40;;;3.70;;
6860;SDS011;3469;47.060;15.460;2024-03-22T07:30:51;4.20;;;3.40;;
6860;SDS011;3469;47.060;15.460;2024-03-22T07:33:23;5.50;;;3.83;;
6860;SDS011;3469;47.060;15.460;2024-03-22T07:35:50;4.60;;;3.40;;
6860;SDS011;3469;47.060;15.460;2024-03-22T07:38:16;8.03;;;4.33;;
6860;SDS011;3469;47.060;15.460;2024-03-22T07:40:43;9.57;;;4.47;;
6860;SDS011;3469;47.060;15.460;2024-03-22T07:43:09;12.03;;;4.10;;
6860;SDS011;3469;47.060;15.460;2024-03-22T07:45:36;5.50;;;4.20;;
6860;SDS011;3469;47.060;15.460;2024-03-22T07:48:04;5.40;;;4.10;;
6860;SDS011;3469;47.060;15.460;2024-03-22T07:50:34;6.80;;;4.60;;
6860;SDS011;3469;47.060;15.460;2024-03-22T07:53:01;10.93;;;4.57;;
6860;SDS011;3469;47.060;15.460;2024-03-22T07:55:30;5.63;;;4.17;;
6860;SDS011;3469;47.060;15.460;2024-03-22T07:57:56;5.53;;;4.00;;
6860;SDS011;3469;47.060;15.460;2024-03-22T08:00:23;6.90;;;4.00;;
6860;SDS011;3469;47.060;15.460;2024-03-22T08:02:51;4.63;;;3.47;;
6860;SDS011;3469;47.060;15.460;2024-03-22T08:05:17;4.80;;;3.90;;
6860;SDS011;3469;47.060;15.460;2024-03-22T08:07:47;3.33;;;3.00;;
6860;SDS011;3469;47.060;15.460;2024-03-22T08:10:14;5.50;;;3.63;;
6860;SDS011;3469;47.060;15.460;2024-03-22T08:12:41;4.33;;;3.07;;
6860;SDS011;3469;47.060;15.460;2024-03-22T08:15:09;8.27;;;4.13;;
6860;SDS011;3469;47.060;15.460;2024-03-22T08:17:36;4.00;;;3.20;;
6860;SDS011;3469;47.060;15.460;2024-03-22T08:20:02;4.93;;;3.97;;
6860;SDS011;3469;47.060;15.460;2024-03-22T08:22:30;6.23;;;4.10;;
6860;SDS011;3469;47.060;15.460;2024-03-22T08:24:59;9.37;;;4.80;;
6860;SDS011;3469;47.060;15.460;2024-03-22T08:27:25;4.27;;;3.37;;
6860;SDS011;3469;47.060;15.460;2024-03-22T08:29:52;7.90;;;5.47;;
6860;SDS011;3469;47.060;15.460;2024-03-22T08:32:18;5.37;;;3.30;;
6860;SDS011;3469;47.060;15.460;2024-03-22T08:34:45;11.73;;;3.17;;
6860;SDS011;3469;47.060;15.460;2024-03-22T08:37:12;6.13;;;4.40;;
6860;SDS011;3469;47.060;15.460;2024-03-22T08:39:38;6.13;;;4.17;;
6860;SDS011;3469;47.060;15.460;2024-03-22T08:42:07;8.33;;;3.87;;
6860;SDS011;3469;47.060;15.460;2024-03-22T08:44:34;6.40;;;3.40;;
6860;SDS011;3469;47.060;15.460;2024-03-22T08:47:00;5.40;;;3.53;;
6860;SDS011;3469;47.060;15.460;2024-03-22T08:49:29;19.67;;;5.07;;
6860;SDS011;3469;47.060;15.460;2024-03-22T08:51:55;5.70;;;3.20;;
6860;SDS011;3469;47.060;15.460;2024-03-22T08:54:22;5.80;;;3.47;;
6860;SDS011;3469;47.060;15.460;2024-03-22T08:56:48;3.80;;;3.40;;
6860;SDS011;3469;47.060;15.460;2024-03-22T08:59:17;4.53;;;3.30;;
6860;SDS011;3469;47.060;15.460;2024-03-22T09:01:44;4.30;;;3.90;;
6860;SDS011;3469;47.060;15.460;2024-03-22T09:04:11;4.83;;;3.90;;
6860;SDS011;3469;47.060;15.460;2024-03-22T09:06:38;5.00;;;3.73;;
6860;SDS011;3469;47.060;15.460;2024-03-22T09:09:04;4.57;;;3.53;;
6860;SDS011;3469;47.060;15.460;2024-03-22T09:11:31;3.93;;;3.43;;
6860;SDS011;3469;47.060;15.460;2024-03-22T09:13:57;4.27;;;3.00;;
6860;SDS011;3469;47.060;15.460;2024-03-22T09:16:26;4.60;;;3.30;;
6860;SDS011;3469;47.060;15.460;2024-03-22T09:18:53;4.00;;;2.90;;
6860;SDS011;3469;47.060;15.460;2024-03-22T09:21:19;5.23;;;3.50;;
6860;SDS011;3469;47.060;15.460;2024-03-22T09:23:46;10.40;;;3.40;;
6860;SDS011;3469;47.060;15.460;2024-03-22T09:26:12;4.50;;;2.53;;
6860;SDS011;3469;47.060;15.460;2024-03-22T09:28:39;11.60;;;2.87;;
6860;SDS011;3469;47.060;15.460;2024-03-22T09:31:06;13.93;;;3.40;;
6860;SDS011;3469;47.060;15.460;2024-03-22T09:33:35;6.60;;;3.10;;
6860;SDS011;3469;47.060;15.460;2024-03-22T09:36:02;5.30;;;2.90;;
6860;SDS011;3469;47.060;15.460;2024-03-22T09:38:28;8.80;;;2.97;;
6860;SDS011;3469;47.060;15.460;2024-03-22T09:40:55;4.33;;;3.00;;
6860;SDS011;3469;47.060;15.460;2024-03-22T09:43:22;4.90;;;3.40;;
6860;SDS011;3469;47.060;15.460;2024-03-22T09:45:50;3.80;;;2.80;;
6860;SDS011;3469;47.060;15.460;2024-03-22T09:48:17;2.60;;;2.07;;
6860;SDS011;3469;47.060;15.460;2024-03-22T09:50:47;4.20;;;2.90;;
6860;SDS011;3469;47.060;15.460;2024-03-22T09:53:14;5.60;;;2.77;;
6860;SDS011;3469;47.060;15.460;2024-03-22T09:55:44;3.43;;;2.43;;
6860;SDS011;3469;47.060;15.460;2024-03-22T09:58:10;5.87;;;3.13;;
6860;SDS011;3469;47.060;15.460;2024-03-22T10:00:40;6.17;;;3.03;;
6860;SDS011;3469;47.060;15.460;2024-03-22T10:03:06;6.83;;;3.80;;
6860;SDS011;3469;47.060;15.460;2024-03-22T10:05:33;4.20;;;2.80;;
6860;SDS011;3469;47.060;15.460;2024-03-22T10:08:03;5.70;;;2.40;;
6860;SDS011;3469;47.060;15.460;2024-03-22T10:10:30;4.90;;;2.93;;
6860;SDS011;3469;47.060;15.460;2024-03-22T10:12:57;3.97;;;3.10;;
6860;SDS011;3469;47.060;15.460;2024-03-22T10:15:26;10.17;;;2.67;;
6860;SDS011;3469;47.060;15.460;2024-03-22T10:17:52;2.50;;;2.30;;
6860;SDS011;3469;47.060;15.460;2024-03-22T10:20:21;5.30;;;2.80;;
6860;SDS011;3469;47.060;15.460;2024-03-22T10:22:48;3.53;;;3.23;;
6860;SDS011;3469;47.060;15.460;2024-03-22T10:25:22;2.90;;;2.50;;
6860;SDS011;3469;47.060;15.460;2024-03-22T10:27:49;2.50;;;2.30;;
6860;SDS011;3469;47.060;15.460;2024-03-22T10:30:16;3.10;;;2.20;;
6860;SDS011;3469;47.060;15.460;2024-03-22T10:32:43;2.07;;;1.87;;
6860;SDS011;3469;47.060;15.460;2024-03-22T10:35:11;3.00;;;2.07;;
6860;SDS011;3469;47.060;15.460;2024-03-22T10:37:40;2.90;;;2.07;;
6860;SDS011;3469;47.060;15.460;2024-03-22T10:40:07;4.37;;;2.67;;
6860;SDS011;3469;47.060;15.460;2024-03-22T10:42:37;2.20;;;2.00;;
6860;SDS011;3469;47.060;15.460;2024-03-22T10:45:05;4.00;;;2.57;;
6860;SDS011;3469;47.060;15.460;2024-03-22T10:47:33;4.37;;;2.57;;
6860;SDS011;3469;47.060;15.460;2024-03-22T10:50:04;2.50;;;2.30;;
6860;SDS011;3469;47.060;15.460;2024-03-22T10:52:32;2.33;;;2.00;;
6860;SDS011;3469;47.060;15.460;2024-03-22T10:55:00;2.87;;;2.13;;
6860;SDS011;3469;47.060;15.460;2024-03-22T10:57:27;5.23;;;2.03;;
6860;SDS011;3469;47.060;15.460;2024-03-22T10:59:56;3.03;;;2.20;;
6860;SDS011;3469;47.060;15.460;2024-03-22T11:02:23;2.50;;;1.90;;
6860;SDS011;3469;47.060;15.460;2024-03-22T11:04:53;2.97;;;1.90;;
6860;SDS011;3469;47.060;15.460;2024-03-22T11:07:22;3.40;;;1.90;;
6860;SDS011;3469;47.060;15.460;2024-03-22T11:09:55;2.33;;;1.90;;
6860;SDS011;3469;47.060;15.460;2024-03-22T11:12:23;5.40;;;1.80;;
6860;SDS011;3469;47.060;15.460;2024-03-22T11:14:50;2.37;;;2.10;;
6860;SDS011;3469;47.060;15.460;2024-03-22T11:17:20;13.40;;;2.10;;
6860;SDS011;3469;47.060;15.460;2024-03-22T11:19:47;13.20;;;3.50;;
6860;SDS011;3469;47.060;15.460;2024-03-22T11:22:14;5.23;;;2.70;;
6860;SDS011;3469;47.060;15.460;2024-03-22T11:24:41;4.67;;;1.87;;
6860;SDS011;3469;47.060;15.460;2024-03-22T11:27:07;5.57;;;1.90;;
6860;SDS011;3469;47.060;15.460;2024-03-22T11:29:34;11.53;;;2.57;;
6860;SDS011;3469;47.060;15.460;2024-03-22T11:32:00;2.47;;;1.83;;
6860;SDS011;3469;47.060;15.460;2024-03-22T11:34:29;3.77;;;2.10;;
6860;SDS011;3469;47.060;15.460;2024-03-22T11:36:56;3.00;;;2.30;;
6860;SDS011;3469;47.060;15.460;2024-03-22T11:39:22;11.63;;;2.77;;
6860;SDS011;3469;47.060;15.460;2024-03-22T11:41:49;4.57;;;2.00;;
6860;SDS011;3469;47.060;15.460;2024-03-22T11:44:16;5.00;;;1.83;;
6860;SDS011;3469;47.060;15.460;2024-03-22T11:46:43;3.77;;;1.73;;
6860;SDS011;3469;47.060;15.460;2024-03-22T11:49:10;1.80;;;1.63;;
6860;SDS011;3469;47.060;15.460;2024-03-22T11:51:39;2.17;;;1.67;;
6860;SDS011;3469;47.060;15.460;2024-03-22T11:54:06;2.23;;;1.73;;
6860;SDS011;3469;47.060;15.460;2024-03-22T11:56:35;6.93;;;2.00;;
6860;SDS011;3469;47.060;15.460;2024-03-22T11:59:01;2.30;;;1.67;;
6860;SDS011;3469;47.060;15.460;2024-03-22T12:01:28;2.27;;;2.07;;
6860;SDS011;3469;47.060;15.460;2024-03-22T12:03:55;3.00;;;2.07;;
6860;SDS011;3469;47.060;15.460;2024-03-22T12:06:22;2.40;;;1.60;;
6860;SDS011;3469;47.060;15.460;2024-03-22T12:08:51;2.80;;;1.80;;
6860;SDS011;3469;47.060;15.460;2024-03-22T12:11:18;3.10;;;2.03;;
6860;SDS011;3469;47.060;15.460;2024-03-22T12:13:46;2.00;;;1.70;;
6860;SDS011;3469;47.060;15.460;2024-03-22T12:16:13;4.20;;;2.33;;
6860;SDS011;3469;47.060;15.460;2024-03-22T12:18:39;1.53;;;1.43;;
6860;SDS011;3469;47.060;15.460;2024-03-22T12:21:06;1.67;;;1.50;;
6860;SDS011;3469;47.060;15.460;2024-03-22T12:23:33;3.97;;;2.23;;
6860;SDS011;3469;47.060;15.460;2024-03-22T12:26:03;2.60;;;1.10;;
6860;SDS011;3469;47.060;15.460;2024-03-22T12:28:30;1.70;;;1.60;;
6860;SDS011;3469;47.060;15.460;2024-03-22T12:30:56;1.77;;;1.40;;
6860;SDS011;3469;47.060;15.460;2024-03-22T12:33:23;4.80;;;1.80;;
6860;SDS011;3469;47.060;15.460;2024-03-22T12:35:50;2.30;;;1.27;;
6860;SDS011;3469;47.060;15.460;2024-03-22T12:38:17;2.23;;;1.50;;
6860;SDS011;3469;47.060;15.460;2024-03-22T12:40:44;8.40;;;2.00;;
6860;SDS011;3469;47.060;15.460;2024-03-22T12:43:13;5.80;;;1.97;;
6860;SDS011;3469;47.060;15.460;2024-03-22T12:45:40;1.97;;;1.40;;
6860;SDS011;3469;47.060;15.460;2024-03-22T12:48:06;2.30;;;1.33;;
6860;SDS011;3469;47.060;15.460;2024-03-22T12:50:33;1.43;;;1.30;;
6860;SDS011;3469;47.060;15.460;2024-03-22T12:53:00;2.37;;;1.57;;
6860;SDS011;3469;47.060;15.460;2024-03-22T12:55:27;1.60;;;1.40;;
6860;SDS011;3469;47.060;15.460;2024-03-22T12:57:54;2.20;;;1.50;;
6860;SDS011;3469;47.060;15.460;2024-03-22T13:00:24;8.93;;;1.47;;
6860;SDS011;3469;47.060;15.460;2024-03-22T13:02:50;2.13;;;1.40;;
6860;SDS011;3469;47.060;15.460;2024-03-22T13:05:18;3.53;;;1.77;;
6860;SDS011;3469;47.060;15.460;2024-03-22T13:07:46;2.00;;;1.60;;
6860;SDS011;3469;47.060;15.460;2024-03-22T13:10:12;4.20;;;1.60;;
6860;SDS011;3469;47.060;15.460;2024-03-22T13:12:39;2.67;;;1.70;;
6860;SDS011;3469;47.060;15.460;2024-03-22T13:15:05;2.47;;;1.67;;
6860;SDS011;3469;47.060;15.460;2024-03-22T13:17:35;2.13;;;1.63;;
6860;SDS011;3469;47.060;15.460;2024-03-22T13:20:02;2.60;;;1.90;;
6860;SDS011;3469;47.060;15.460;2024-03-22T13:22:31;1.50;;;1.40;;
6860;SDS011;3469;47.060;15.460;2024-03-22T13:24:58;4.50;;;2.10;;
6860;SDS011;3469;47.060;15.460;2024-03-22T13:27:24;3.53;;;2.10;;
6860;SDS011;3469;47.060;15.460;2024-03-22T13:29:51;1.73;;;1.63;;
6860;SDS011;3469;47.060;15.460;2024-03-22T13:32:17;2.23;;;1.53;;
6860;SDS011;3469;47.060;15.460;2024-03-22T13:34:47;1.90;;;1.70;;
6860;SDS011;3469;47.060;15.460;2024-03-22T13:37:14;4.40;;;1.97;;
6860;SDS011;3469;47.060;15.460;2024-03-22T13:39:40;3.60;;;1.50;;
6860;SDS011;3469;47.060;15.460;2024-03-22T13:42:07;1.53;;;1.43;;
6860;SDS011;3469;47.060;15.460;2024-03-22T13:44:34;1.80;;;1.70;;
6860;SDS011;3469;47.060;15.460;2024-03-22T13:47:00;4.30;;;1.60;;
6860;SDS011;3469;47.060;15.460;2024-03-22T13:49:27;2.77;;;1.70;;
6860;SDS011;3469;47.060;15.460;2024-03-22T13:51:57;4.60;;;1.90;;
6860;SDS011;3469;47.060;15.460;2024-03-22T13:54:24;3.70;;;1.90;;
6860;SDS011;3469;47.060;15.460;2024-03-22T13:56:51;4.50;;;1.63;;
6860;SDS011;3469;47.060;15.460;2024-03-22T13:59:17;11.27;;;1.70;;
6860;SDS011;3469;47.060;15.460;2024-03-22T14:01:44;2.80;;;1.50;;
6860;SDS011;3469;47.060;15.460;2024-03-22T14:04:11;2.17;;;1.50;;
6860;SDS011;3469;47.060;15.460;2024-03-22T14:06:38;8.63;;;1.70;;
6860;SDS011;3469;47.060;15.460;2024-03-22T14:09:07;10.20;;;1.77;;
6860;SDS011;3469;47.060;15.460;2024-03-22T14:11:34;2.27;;;1.47;;
6860;SDS011;3469;47.060;15.460;2024-03-22T14:14:01;2.77;;;1.60;;
6860;SDS011;3469;47.060;15.460;2024-03-22T14:16:27;6.90;;;1.50;;
6860;SDS011;3469;47.060;15.460;2024-03-22T14:18:54;10.00;;;1.70;;
6860;SDS011;3469;47.060;15.460;2024-03-22T14:21:20;2.80;;;2.60;;
6860;SDS011;3469;47.060;15.460;2024-03-22T14:23:47;2.63;;;1.37;;
6860;SDS011;3469;47.060;15.460;2024-03-22T14:26:17;2.17;;;1.47;;
6860;SDS011;3469;47.060;15.460;2024-03-22T14:28:50;4.83;;;1.40;;
6860;SDS011;3469;47.060;15.460;2024-03-22T14:31:18;1.50;;;1.40;;
6860;SDS011;3469;47.060;15.460;2024-03-22T14:33:45;3.30;;;1.93;;
6860;SDS011;3469;47.060;15.460;2024-03-22T14:36:12;2.03;;;1.50;;
6860;SDS011;3469;47.060;15.460;2024-03-22T14:38:39;1.67;;;1.20;;
6860;SDS011;3469;47.060;15.460;2024-03-22T14:41:09;2.70;;;1.40;;
6860;SDS011;3469;47.060;15.460;2024-03-22T14:43:41;1.80;;;1.70;;
6860;SDS011;3469;47.060;15.460;2024-03-22T14:46:11;2.23;;;2.00;;
6860;SDS011;3469;47.060;15.460;2024-03-22T14:48:39;2.00;;;1.77;;
6860;SDS011;3469;47.060;15.460;2024-03-22T14:51:06;5.13;;;1.80;;
6860;SDS011;3469;47.060;15.460;2024-03-22T14:53:33;2.83;;;1.57;;
6860;SDS011;3469;47.060;15.460;2024-03-22T14:56:08;2.23;;;1.80;;
6860;SDS011;3469;47.060;15.460;2024-03-22T14:58:38;4.37;;;2.10;;
6860;SDS011;3469;47.060;15.460;2024-03-22T15:01:09;1.93;;;1.60;;